Time;durP1;ratioP1;P1;durP2;ratioP2;P2;SDS_P1;SDS_P2;PMS_P1;PMS_P2;Temp;Humidity;BMP_temperature;BMP_pressure;BME280_temperature;BME280_humidity;BME280_pressure;Samples;Min_cycle;Max_cycle;Signal;HPM_P1;HPM_P2
2021/12/10 00:01:57;;;;;;;82.80;31.97;;;-1.40;99.90;;;;;;5074050;28;20227;-79
2021/12/10 00:04:29;;;;;;;88.00;32.97;;;-1.40;99.90;;;;;;5073447;28;20605;-79
2021/12/10 00:06:58;;;;;;;89.67;33.47;;;-1.40;99.90;;;;;;5074054;28;20184;-79
2021/12/10 00:09:30;;;;;;;88.67;33.53;;;-1.40;99.90;;;;;;5074081;28;20249;-79
2021/12/10 00:12:03;;;;;;;90.10;33.23;;;-1.40;99.90;;;;;;5073974;28;20180;-79
2021/12/10 00:14:32;;;;;;;86.67;31.67;;;-1.30;99.90;;;;;;5073658;28;20241;-79
2021/12/10 00:17:00;;;;;;;92.03;32.17;;;-1.30;99.90;;;;;;5073495;28;20295;-79
2021/12/10 00:19:33;;;;;;;96.47;34.00;;;-1.30;99.90;;;;;;5073468;28;20203;-79
2021/12/10 00:22:05;;;;;;;87.10;33.23;;;-1.20;99.90;;;;;;5074084;28;20196;-79
2021/12/10 00:24:34;;;;;;;84.17;33.47;;;-1.20;99.90;;;;;;5072177;28;20200;-79
2021/12/10 00:27:07;;;;;;;92.07;32.97;;;-1.20;99.90;;;;;;5073683;28;20684;-79
2021/12/10 00:29:38;;;;;;;85.10;34.77;;;-1.20;99.90;;;;;;5073589;28;20185;-79
2021/12/10 00:32:17;;;;;;;85.87;33.33;;;-1.10;99.90;;;;;;5073595;28;20516;-79
2021/12/10 00:34:49;;;;;;;86.40;33.60;;;-1.10;99.90;;;;;;5069842;28;20183;-78
2021/12/10 00:37:20;;;;;;;86.23;32.50;;;-1.10;99.90;;;;;;5073620;28;20193;-79
2021/12/10 00:39:52;;;;;;;95.80;33.83;;;-1.10;99.90;;;;;;5073079;28;20269;-79
2021/12/10 00:42:22;;;;;;;87.57;33.77;;;-1.10;99.90;;;;;;5073046;28;20696;-79
2021/12/10 00:44:49;;;;;;;89.53;34.07;;;-1.10;99.90;;;;;;5072913;28;20216;-79
2021/12/10 00:47:16;;;;;;;84.77;32.23;;;-1.10;99.90;;;;;;5072906;28;20644;-79
2021/12/10 00:49:44;;;;;;;89.87;34.57;;;-1.10;99.90;;;;;;5073057;28;20192;-79
2021/12/10 00:52:13;;;;;;;94.23;33.87;;;-1.00;99.90;;;;;;5073031;28;20212;-78
2021/12/10 00:54:41;;;;;;;84.90;34.63;;;-1.00;99.90;;;;;;5073016;28;20200;-79
2021/12/10 00:57:11;;;;;;;91.10;34.70;;;-1.00;99.90;;;;;;5073047;28;20187;-79
2021/12/10 00:59:39;;;;;;;99.43;35.87;;;-1.00;99.90;;;;;;5072711;28;20246;-79
2021/12/10 01:02:08;;;;;;;90.37;35.17;;;-0.90;99.90;;;;;;5072600;28;20257;-79
2021/12/10 01:04:37;;;;;;;97.50;35.57;;;-0.90;99.90;;;;;;5072690;28;20268;-79
2021/12/10 01:07:10;;;;;;;90.60;36.03;;;-0.90;99.90;;;;;;5072522;28;20247;-79
2021/12/10 01:09:40;;;;;;;100.23;37.17;;;-0.90;99.90;;;;;;5072652;28;20206;-78
2021/12/10 01:12:12;;;;;;;103.43;36.13;;;-0.90;99.90;;;;;;5072895;28;20183;-79
2021/12/10 01:14:58;;;;;;;95.27;35.03;;;-0.90;99.90;;;;;;5072255;28;20245;-79
2021/12/10 01:25:55;;;;;;;85.27;32.97;;;-1.10;99.90;;;;;;5072712;28;20183;-79
2021/12/10 01:28:24;;;;;;;90.17;32.77;;;-1.10;99.90;;;;;;5072301;28;20554;-79
2021/12/10 01:30:51;;;;;;;89.97;31.90;;;-1.10;99.90;;;;;;5072761;28;20238;-79
2021/12/10 01:33:19;;;;;;;88.23;31.47;;;-1.10;99.90;;;;;;5072265;28;20196;-79
2021/12/10 01:35:49;;;;;;;91.27;33.20;;;-1.10;99.90;;;;;;5072313;28;20200;-79
2021/12/10 01:38:18;;;;;;;92.43;32.70;;;-1.20;99.90;;;;;;5072658;28;20214;-79
2021/12/10 01:40:48;;;;;;;96.90;33.77;;;-1.20;99.90;;;;;;5072352;28;20226;-79
2021/12/10 01:43:22;;;;;;;78.07;30.33;;;-1.20;99.90;;;;;;5072203;28;20616;-79
2021/12/10 01:45:54;;;;;;;73.37;28.30;;;-1.20;99.90;;;;;;5072626;28;20187;-79
2021/12/10 01:48:26;;;;;;;85.57;30.23;;;-1.20;99.90;;;;;;5072491;28;20195;-79
2021/12/10 01:50:54;;;;;;;77.07;30.73;;;-1.30;99.90;;;;;;5072249;28;20184;-79
2021/12/10 01:53:24;;;;;;;80.47;30.50;;;-1.30;99.90;;;;;;5072374;28;20253;-79
2021/12/10 01:55:54;;;;;;;88.17;33.17;;;-1.30;99.90;;;;;;5072048;28;20249;-79
2021/12/10 01:58:24;;;;;;;88.57;30.93;;;-1.30;99.90;;;;;;5072067;28;20192;-79
2021/12/10 02:00:56;;;;;;;84.00;31.47;;;-1.30;99.90;;;;;;5071983;28;20245;-79
2021/12/10 02:03:24;;;;;;;92.03;34.77;;;-1.30;99.90;;;;;;5072394;28;20199;-79
2021/12/10 02:05:51;;;;;;;91.83;35.20;;;-1.30;99.90;;;;;;5072255;28;20191;-79
2021/12/10 02:08:18;;;;;;;90.43;34.43;;;-1.30;99.90;;;;;;5072555;28;20249;-79
2021/12/10 02:10:45;;;;;;;96.20;36.90;;;-1.30;99.90;;;;;;5072231;28;20253;-79
2021/12/10 02:13:13;;;;;;;90.80;33.97;;;-1.30;99.90;;;;;;5071992;28;20261;-79
2021/12/10 02:15:41;;;;;;;89.43;35.70;;;-1.30;99.90;;;;;;5072351;28;21150;-79
2021/12/10 02:18:12;;;;;;;83.97;31.80;;;-1.30;99.90;;;;;;5071871;28;20224;-79
2021/12/10 02:20:52;;;;;;;92.63;35.97;;;-1.30;99.90;;;;;;5071768;28;20255;-79
2021/12/10 02:23:21;;;;;;;85.70;32.10;;;-1.20;99.90;;;;;;5072043;28;20229;-79
2021/12/10 02:25:48;;;;;;;79.83;30.63;;;-1.30;99.90;;;;;;5071985;28;20278;-79
2021/12/10 02:28:16;;;;;;;89.43;33.50;;;-1.30;99.90;;;;;;5071860;28;20188;-79
2021/12/10 02:30:44;;;;;;;86.97;32.07;;;-1.30;99.90;;;;;;5071723;28;20188;-79
2021/12/10 02:33:11;;;;;;;88.13;34.43;;;-1.30;99.90;;;;;;5071874;28;20680;-79
2021/12/10 02:35:39;;;;;;;82.97;34.00;;;-1.30;99.90;;;;;;5072011;28;20220;-78
2021/12/10 02:38:08;;;;;;;87.77;32.90;;;-1.40;99.90;;;;;;5071612;28;20249;-79
2021/12/10 02:40:37;;;;;;;83.60;32.90;;;-1.40;99.90;;;;;;5071481;28;20300;-79
2021/12/10 02:43:08;;;;;;;89.03;33.83;;;-1.50;99.90;;;;;;5071840;28;20200;-79
2021/12/10 02:45:36;;;;;;;82.07;30.97;;;-1.60;99.90;;;;;;5072005;28;20227;-79
2021/12/10 02:48:04;;;;;;;83.57;32.73;;;-1.60;99.90;;;;;;5072739;28;20718;-79
2021/12/10 02:50:32;;;;;;;82.87;32.57;;;-1.70;99.90;;;;;;5075208;28;20196;-79
2021/12/10 02:53:00;;;;;;;90.83;32.63;;;-1.70;99.90;;;;;;5075160;28;20253;-79
2021/12/10 02:55:30;;;;;;;88.07;32.07;;;-1.80;99.90;;;;;;5075120;28;20237;-78
2021/12/10 02:58:02;;;;;;;89.27;32.10;;;-1.90;99.90;;;;;;5075340;28;20192;-79
2021/12/10 03:00:34;;;;;;;96.30;35.63;;;-1.90;99.90;;;;;;5075418;28;20180;-79
2021/12/10 03:03:01;;;;;;;87.47;32.50;;;-2.00;99.90;;;;;;5075256;28;20234;-79
2021/12/10 03:05:29;;;;;;;79.80;30.83;;;-2.00;99.90;;;;;;5074501;28;20257;-79
2021/12/10 03:07:56;;;;;;;85.90;33.60;;;-2.00;99.90;;;;;;5075219;28;20195;-79
2021/12/10 03:10:26;;;;;;;88.40;33.43;;;-2.10;99.90;;;;;;5074812;28;20696;-79
2021/12/10 03:12:55;;;;;;;87.53;32.87;;;-2.10;99.90;;;;;;5074755;28;20652;-79
2021/12/10 03:15:27;;;;;;;89.70;32.93;;;-2.10;99.90;;;;;;5074645;28;20657;-79
2021/12/10 03:17:54;;;;;;;93.20;33.10;;;-2.10;99.90;;;;;;5074782;28;20188;-79
2021/12/10 03:20:25;;;;;;;85.13;32.60;;;-2.10;99.90;;;;;;5074845;28;20257;-78
2021/12/10 03:22:52;;;;;;;94.20;33.43;;;-2.10;99.90;;;;;;5074964;28;20229;-79
2021/12/10 03:25:19;;;;;;;92.17;33.70;;;-2.10;99.90;;;;;;5074645;28;20211;-79
2021/12/10 03:27:47;;;;;;;94.77;33.53;;;-2.10;99.90;;;;;;5074461;28;20709;-79
2021/12/10 03:30:18;;;;;;;83.73;31.00;;;-2.00;99.90;;;;;;5074439;28;20606;-79
2021/12/10 03:32:45;;;;;;;92.03;33.83;;;-2.00;99.90;;;;;;5075146;28;20192;-79
2021/12/10 03:35:16;;;;;;;96.17;34.33;;;-2.00;99.90;;;;;;5073877;28;20200;-79
2021/12/10 03:37:45;;;;;;;99.17;35.03;;;-2.00;99.90;;;;;;5074143;28;20184;-79
2021/12/10 03:40:14;;;;;;;98.40;35.37;;;-2.00;99.90;;;;;;5074217;28;20219;-79
2021/12/10 03:42:42;;;;;;;96.30;34.67;;;-1.90;99.90;;;;;;5074541;28;20206;-79
2021/12/10 03:45:11;;;;;;;92.50;34.60;;;-1.90;99.90;;;;;;5073828;28;20257;-79
2021/12/10 03:47:41;;;;;;;101.80;35.37;;;-1.80;99.90;;;;;;5074081;28;20192;-79
2021/12/10 03:50:11;;;;;;;99.87;34.77;;;-1.70;99.90;;;;;;5074077;28;20192;-79
2021/12/10 03:52:38;;;;;;;93.60;34.27;;;-1.70;99.90;;;;;;5074303;28;20191;-79
2021/12/10 03:55:07;;;;;;;94.97;36.07;;;-1.60;99.90;;;;;;5074093;28;20216;-79
2021/12/10 03:57:34;;;;;;;103.57;37.73;;;-1.60;99.90;;;;;;5074192;28;20249;-79
2021/12/10 04:00:01;;;;;;;109.50;37.53;;;-1.50;99.90;;;;;;5073901;28;20717;-79
2021/12/10 04:02:30;;;;;;;103.33;36.43;;;-1.50;99.90;;;;;;5073886;28;20199;-79
2021/12/10 04:04:58;;;;;;;106.83;36.93;;;-1.50;99.90;;;;;;5073751;28;20212;-79
2021/12/10 04:07:27;;;;;;;105.97;39.33;;;-1.40;99.90;;;;;;5074270;28;20237;-79
2021/12/10 04:09:55;;;;;;;110.87;37.40;;;-1.40;99.90;;;;;;5074305;28;20196;-79
2021/12/10 04:12:23;;;;;;;97.07;35.67;;;-1.40;99.90;;;;;;5073801;28;20245;-79
2021/12/10 04:14:52;;;;;;;101.90;35.03;;;-1.40;99.90;;;;;;5073667;28;20276;-79
2021/12/10 04:17:21;;;;;;;105.87;35.40;;;-1.40;99.90;;;;;;5073604;28;20241;-79
2021/12/10 04:19:50;;;;;;;90.40;31.30;;;-1.40;99.90;;;;;;5073430;28;20274;-79
2021/12/10 04:22:21;;;;;;;95.93;38.23;;;-1.40;99.90;;;;;;5073685;28;20329;-79
2021/12/10 04:24:50;;;;;;;104.03;36.20;;;-1.30;99.90;;;;;;5073057;28;20199;-78
2021/12/10 04:27:18;;;;;;;103.97;35.73;;;-1.30;99.90;;;;;;5073614;28;20192;-79
2021/12/10 04:29:46;;;;;;;93.57;35.43;;;-1.30;99.90;;;;;;5073592;28;20192;-79
2021/12/10 04:32:14;;;;;;;99.60;34.70;;;-1.30;99.90;;;;;;5073549;28;25089;-79
2021/12/10 04:34:42;;;;;;;99.70;34.60;;;-1.30;99.90;;;;;;5072959;28;20890;-79
2021/12/10 04:37:11;;;;;;;102.90;36.40;;;-1.30;99.90;;;;;;5073561;28;20195;-79
2021/12/10 04:39:45;;;;;;;94.07;35.50;;;-1.20;99.90;;;;;;5073180;28;20041;-79
2021/12/10 04:42:12;;;;;;;105.73;36.63;;;-1.20;99.90;;;;;;5073140;28;20264;-79
2021/12/10 04:44:39;;;;;;;;;;;-1.30;99.90;;;;;;5073072;28;20219;-79
2021/12/10 04:47:07;;;;;;;102.37;37.07;;;-1.20;99.90;;;;;;5072978;28;20031;-79
2021/12/10 04:49:34;;;;;;;89.20;33.47;;;-1.20;99.90;;;;;;5072964;28;20245;-79
2021/12/10 04:52:01;;;;;;;110.50;36.70;;;-1.20;99.90;;;;;;5072913;28;20188;-79
2021/12/10 04:54:28;;;;;;;94.27;33.23;;;-1.10;99.90;;;;;;5073362;28;20196;-79
2021/12/10 04:56:59;;;;;;;100.47;36.40;;;-1.10;99.90;;;;;;5073383;28;20191;-79
2021/12/10 04:59:28;;;;;;;98.50;33.90;;;-1.10;99.90;;;;;;5073480;28;20258;-79
2021/12/10 05:01:57;;;;;;;96.47;34.83;;;-1.10;99.90;;;;;;5072525;28;20555;-79
2021/12/10 05:04:24;;;;;;;97.17;33.80;;;-1.00;99.90;;;;;;5072610;28;20220;-79
2021/12/10 05:06:51;;;;;;;101.20;36.53;;;-1.00;99.90;;;;;;5072612;28;20656;-79
2021/12/10 05:09:20;;;;;;;100.30;34.53;;;-1.00;99.90;;;;;;5073226;28;20600;-79
2021/12/10 05:11:48;;;;;;;106.70;35.57;;;-1.00;99.90;;;;;;5071910;28;20710;-78
2021/12/10 05:14:17;;;;;;;96.53;36.07;;;-1.00;99.90;;;;;;5072938;28;20200;-79
2021/12/10 05:16:49;;;;;;;99.00;37.03;;;-1.00;99.90;;;;;;5072767;28;20206;-79
2021/12/10 05:19:20;;;;;;;101.87;36.90;;;-1.00;99.90;;;;;;5072540;28;20225;-79
2021/12/10 05:21:48;;;;;;;96.23;35.20;;;-1.00;99.90;;;;;;5071695;28;20563;-79
2021/12/10 05:24:16;;;;;;;103.20;34.13;;;-1.00;99.90;;;;;;5072609;28;20261;-79
2021/12/10 05:26:43;;;;;;;98.13;35.10;;;-1.00;99.90;;;;;;5072624;28;20245;-79
2021/12/10 05:29:11;;;;;;;99.33;36.60;;;-0.90;99.90;;;;;;5072324;28;20192;-79
2021/12/10 05:31:43;;;;;;;106.80;38.53;;;-0.90;99.90;;;;;;5072078;28;20196;-79
2021/12/10 05:34:10;;;;;;;107.60;37.90;;;-1.00;99.90;;;;;;5072753;28;20532;-79
2021/12/10 05:36:37;;;;;;;104.93;36.97;;;-1.00;99.90;;;;;;5072270;28;20241;-79
2021/12/10 05:39:06;;;;;;;109.87;37.43;;;-1.00;99.90;;;;;;5072577;28;20203;-79
2021/12/10 05:41:33;;;;;;;107.43;37.13;;;-1.00;99.90;;;;;;5072390;28;20216;-79
2021/12/10 05:44:00;;;;;;;104.83;34.30;;;-1.00;99.90;;;;;;5072836;28;20192;-78
2021/12/10 05:46:27;;;;;;;106.17;35.83;;;-1.00;99.90;;;;;;5072764;28;20227;-79
2021/12/10 05:48:59;;;;;;;113.43;36.70;;;-1.00;99.90;;;;;;5072427;28;20191;-79
2021/12/10 05:51:26;;;;;;;98.97;36.13;;;-1.00;99.90;;;;;;5071938;28;20184;-79
2021/12/10 05:53:53;;;;;;;107.95;37.80;;;-1.00;99.90;;;;;;5072704;28;20187;-79
2021/12/10 05:56:20;;;;;;;97.77;35.80;;;-1.00;99.90;;;;;;5072438;28;20196;-79
2021/12/10 05:58:48;;;;;;;106.67;36.73;;;-1.00;99.90;;;;;;5072003;28;20238;-79
2021/12/10 06:01:17;;;;;;;100.53;36.07;;;-1.00;99.90;;;;;;5072173;28;20188;-79
2021/12/10 06:03:51;;;;;;;103.63;34.80;;;-1.00;99.90;;;;;;5072072;28;20239;-79
2021/12/10 06:06:21;;;;;;;102.07;35.63;;;-0.90;99.90;;;;;;5072266;28;20249;-79
2021/12/10 06:08:51;;;;;;;102.80;35.60;;;-0.90;99.90;;;;;;5072367;28;20249;-79
2021/12/10 06:11:20;;;;;;;108.00;39.70;;;-0.90;99.90;;;;;;5066593;28;21038;-79
2021/12/10 06:13:48;;;;;;;104.97;40.03;;;-0.90;99.90;;;;;;5060948;28;20197;-79
2021/12/10 06:16:16;;;;;;;109.77;38.00;;;-0.90;99.90;;;;;;5052267;28;20664;-79
2021/12/10 06:18:44;;;;;;;116.60;40.00;;;-0.80;99.90;;;;;;5052165;28;20192;-79
2021/12/10 06:21:12;;;;;;;106.00;36.43;;;-0.80;99.90;;;;;;5064367;28;20184;-79
2021/12/10 06:23:41;;;;;;;112.00;35.23;;;-0.80;99.90;;;;;;5074659;28;20192;-79
2021/12/10 06:26:09;;;;;;;106.73;37.00;;;-0.80;99.90;;;;;;5075587;28;20238;-79
2021/12/10 06:28:36;;;;;;;111.97;37.13;;;-0.80;99.90;;;;;;5077519;28;20242;-79
2021/12/10 06:31:05;;;;;;;125.13;40.97;;;-0.80;99.90;;;;;;5076406;28;20191;-79
2021/12/10 06:33:33;;;;;;;124.17;40.80;;;-0.80;99.90;;;;;;5075672;28;20191;-79
2021/12/10 06:36:03;;;;;;;120.23;38.70;;;-0.80;99.90;;;;;;5075868;28;20536;-79
2021/12/10 06:38:30;;;;;;;120.57;40.67;;;-0.80;99.90;;;;;;5076141;28;20271;-79
2021/12/10 06:40:59;;;;;;;109.37;36.20;;;-0.80;99.90;;;;;;5075666;28;20216;-79
2021/12/10 06:43:27;;;;;;;110.10;36.30;;;-0.80;99.90;;;;;;5075315;28;20188;-79
2021/12/10 06:45:54;;;;;;;107.33;38.20;;;-0.80;99.90;;;;;;5075238;28;20552;-79
2021/12/10 06:48:25;;;;;;;102.47;36.13;;;-0.80;99.90;;;;;;5075530;28;20192;-79
2021/12/10 06:50:55;;;;;;;112.20;37.43;;;-0.80;99.90;;;;;;5075209;28;20237;-79
2021/12/10 06:53:25;;;;;;;121.93;39.60;;;-0.80;99.90;;;;;;5075419;28;20187;-79
2021/12/10 06:55:57;;;;;;;125.13;40.90;;;-0.80;99.90;;;;;;5075353;28;20203;-79
2021/12/10 06:58:27;;;;;;;119.13;37.03;;;-0.80;99.90;;;;;;5075142;28;20641;-79
2021/12/10 07:00:57;;;;;;;113.47;39.47;;;-0.90;99.90;;;;;;5075071;28;20605;-79
2021/12/10 07:03:27;;;;;;;124.73;38.70;;;-0.90;99.90;;;;;;5074981;28;20633;-79
2021/12/10 07:05:56;;;;;;;123.23;37.47;;;-0.90;99.90;;;;;;5075112;28;20262;-79
2021/12/10 07:08:28;;;;;;;112.57;38.43;;;-0.90;99.90;;;;;;5074709;28;20536;-79
2021/12/10 07:10:56;;;;;;;117.33;38.33;;;-0.90;99.90;;;;;;5074833;28;20234;-79
2021/12/10 07:13:25;;;;;;;132.80;41.70;;;-0.90;99.90;;;;;;5075102;28;20199;-79
2021/12/10 07:15:53;;;;;;;132.40;39.47;;;-0.80;99.90;;;;;;5074681;28;20257;-78
2021/12/10 07:18:22;;;;;;;142.00;44.67;;;-0.80;99.90;;;;;;5074339;28;20194;-79
2021/12/10 07:20:51;;;;;;;145.23;49.20;;;-0.80;99.90;;;;;;5074973;28;20192;-79
2021/12/10 07:23:18;;;;;;;147.15;47.65;;;-0.80;99.90;;;;;;5074882;28;20196;-79
2021/12/10 07:25:46;;;;;;;136.40;45.23;;;-0.80;99.90;;;;;;5074890;28;20211;-79
2021/12/10 07:28:15;;;;;;;138.03;45.07;;;-0.70;99.90;;;;;;5074507;28;20194;-79
2021/12/10 07:30:44;;;;;;;133.15;45.60;;;-0.70;99.90;;;;;;5074490;28;20192;-79
2021/12/10 07:33:13;;;;;;;138.70;47.00;;;-0.60;99.90;;;;;;5074116;28;20199;-79
2021/12/10 07:35:40;;;;;;;138.87;46.20;;;-0.60;99.90;;;;;;5074244;28;20661;-79
2021/12/10 07:38:08;;;;;;;129.30;43.23;;;-0.60;99.90;;;;;;5074207;28;20179;-79
2021/12/10 07:40:37;;;;;;;127.10;42.10;;;-0.50;99.90;;;;;;5074622;28;20297;-79
2021/12/10 07:43:05;;;;;;;157.80;53.15;;;-0.50;99.90;;;;;;5074227;28;20535;-79
2021/12/10 07:45:34;;;;;;;141.00;47.20;;;-0.50;99.90;;;;;;5074471;28;20276;-79
2021/12/10 07:48:08;;;;;;;142.07;46.80;;;-0.40;99.90;;;;;;5073899;28;20215;-79
2021/12/10 07:50:38;;;;;;;154.90;48.80;;;-0.40;99.90;;;;;;5074571;28;20229;-79
2021/12/10 07:53:06;;;;;;;144.33;45.00;;;-0.40;99.90;;;;;;5074209;28;20665;-79
2021/12/10 07:55:37;;;;;;;136.47;43.03;;;-0.40;99.90;;;;;;5074011;28;20196;-79
2021/12/10 07:58:06;;;;;;;138.95;43.10;;;-0.30;99.90;;;;;;5074054;28;20245;-80
2021/12/10 08:00:36;;;;;;;130.87;45.77;;;-0.30;99.90;;;;;;5074157;28;20417;-79
2021/12/10 08:03:05;;;;;;;131.00;44.20;;;-0.30;99.90;;;;;;5074187;28;20270;-79
2021/12/10 08:05:32;;;;;;;114.90;41.93;;;-0.30;99.90;;;;;;5073358;28;20249;-79
2021/12/10 08:08:03;;;;;;;133.77;44.37;;;-0.30;99.90;;;;;;5074065;28;20242;-79
2021/12/10 08:10:33;;;;;;;134.20;42.30;;;-0.20;99.90;;;;;;5073188;28;20192;-79
2021/12/10 08:13:03;;;;;;;135.50;45.20;;;-0.20;99.90;;;;;;5073417;28;20184;-79
2021/12/10 08:15:32;;;;;;;130.47;43.60;;;-0.10;99.90;;;;;;5073352;28;20192;-79
2021/12/10 08:18:00;;;;;;;128.03;41.43;;;-0.10;99.90;;;;;;5073740;28;20196;-79
2021/12/10 08:20:30;;;;;;;128.00;41.00;;;-0.10;99.90;;;;;;5073338;28;20603;-79
2021/12/10 08:22:57;;;;;;;118.00;39.50;;;-0.10;99.90;;;;;;5071905;28;20198;-79
2021/12/10 08:25:29;;;;;;;125.93;41.43;;;-0.10;99.90;;;;;;5073584;28;20273;-79
2021/12/10 08:28:03;;;;;;;133.30;41.57;;;-0.10;99.90;;;;;;5073466;28;20595;-79
2021/12/10 08:30:35;;;;;;;130.70;41.93;;;-0.10;99.90;;;;;;5073781;28;20190;-79
2021/12/10 08:33:11;;;;;;;134.67;44.37;;;0.00;99.90;;;;;;5072741;28;20172;-79
2021/12/10 08:35:43;;;;;;;128.20;44.47;;;0.10;99.90;;;;;;5073430;28;20199;-79
2021/12/10 08:38:14;;;;;;;116.50;41.50;;;0.20;99.90;;;;;;5073852;28;20305;-79
2021/12/10 08:40:54;;;;;;;133.90;46.53;;;0.20;99.90;;;;;;5072878;28;20285;-79
2021/12/10 08:43:23;;;;;;;157.20;49.80;;;0.30;99.90;;;;;;5072871;28;20200;-79
2021/12/10 08:45:53;;;;;;;116.23;39.03;;;0.30;99.90;;;;;;5072537;28;20215;-79
2021/12/10 08:48:21;;;;;;;124.47;42.47;;;0.30;99.90;;;;;;5073002;28;20637;-79
2021/12/10 08:50:52;;;;;;;148.60;50.33;;;0.30;99.90;;;;;;5072653;28;20680;-79
2021/12/10 08:53:19;;;;;;;146.10;49.80;;;0.40;99.90;;;;;;5073331;28;20279;-80
2021/12/10 08:55:49;;;;;;;158.17;51.27;;;0.40;99.90;;;;;;5072766;28;20196;-80
2021/12/10 08:58:18;;;;;;;151.87;47.83;;;0.40;99.90;;;;;;5073048;28;20200;-79
2021/12/10 09:00:50;;;;;;;133.87;46.70;;;0.40;99.90;;;;;;5072691;28;20184;-79
2021/12/10 09:03:18;;;;;;;205.80;63.33;;;0.40;99.90;;;;;;5072336;28;20180;-79
2021/12/10 09:05:45;;;;;;;212.90;69.33;;;0.40;99.90;;;;;;5073018;28;20226;-79
2021/12/10 09:08:14;;;;;;;324.33;102.07;;;0.40;99.90;;;;;;5073136;28;20237;-79
2021/12/10 09:10:44;;;;;;;115.47;43.90;;;0.40;99.90;;;;;;5072477;28;20591;-79
2021/12/10 09:13:15;;;;;;;132.77;45.97;;;0.40;99.90;;;;;;5072954;28;20274;-79
2021/12/10 09:15:44;;;;;;;168.23;54.90;;;0.50;99.90;;;;;;5072721;28;20636;-79
2021/12/10 09:18:12;;;;;;;173.17;65.00;;;0.50;99.90;;;;;;5072966;28;20188;-80
2021/12/10 09:20:43;;;;;;;93.93;34.70;;;0.50;99.90;;;;;;5072470;28;20191;-79
2021/12/10 09:23:22;;;;;;;126.30;46.87;;;0.50;99.90;;;;;;5072470;28;20190;-79
2021/12/10 09:25:52;;;;;;;129.13;46.57;;;0.40;99.90;;;;;;5072281;28;20226;-80
2021/12/10 09:28:19;;;;;;;128.57;43.50;;;0.40;99.90;;;;;;5072899;28;20268;-79
2021/12/10 09:30:58;;;;;;;112.13;43.43;;;0.40;99.90;;;;;;5071885;28;20237;-79
2021/12/10 09:33:26;;;;;;;117.00;42.40;;;0.40;99.90;;;;;;5072212;28;20179;-79
2021/12/10 09:35:53;;;;;;;123.97;43.67;;;0.40;99.90;;;;;;5072266;28;20576;-79
2021/12/10 09:38:27;;;;;;;110.60;40.83;;;0.50;99.90;;;;;;5072593;28;20195;-79
2021/12/10 09:41:00;;;;;;;118.77;45.37;;;0.50;99.90;;;;;;5071540;28;20273;-78
2021/12/10 09:43:27;;;;;;;118.30;43.97;;;0.60;99.90;;;;;;5072487;28;20286;-79
2021/12/10 09:45:56;;;;;;;129.30;44.70;;;0.70;99.90;;;;;;5072402;28;20249;-79
2021/12/10 09:48:25;;;;;;;135.13;47.80;;;0.90;99.90;;;;;;5072149;28;20537;-79
2021/12/10 09:50:56;;;;;;;120.97;43.93;;;1.10;99.90;;;;;;5071463;28;20184;-79
2021/12/10 09:53:28;;;;;;;139.17;48.27;;;1.30;99.90;;;;;;5072162;28;20183;-79
2021/12/10 09:55:57;;;;;;;158.13;63.53;;;1.50;99.90;;;;;;5072149;28;20698;-80
2021/12/10 09:58:25;;;;;;;122.60;47.77;;;1.70;99.90;;;;;;5076105;28;20196;-79
2021/12/10 10:00:56;;;;;;;110.50;44.93;;;1.60;99.90;;;;;;5075906;28;20217;-79
2021/12/10 10:03:30;;;;;;;126.63;47.30;;;1.60;99.90;;;;;;5076019;28;20198;-80
2021/12/10 10:05:57;;;;;;;135.50;49.57;;;1.60;99.90;;;;;;5076723;28;20211;-79
2021/12/10 10:08:26;;;;;;;132.03;50.13;;;1.60;99.90;;;;;;5076227;28;20601;-79
2021/12/10 10:10:58;;;;;;;115.67;45.53;;;1.60;99.90;;;;;;5075735;28;20184;-79
2021/12/10 10:13:28;;;;;;;124.90;47.07;;;1.80;99.90;;;;;;5076351;28;20245;-80
2021/12/10 10:15:58;;;;;;;129.30;51.40;;;2.00;99.90;;;;;;5076293;28;20220;-80
2021/12/10 10:18:26;;;;;;;120.27;48.43;;;2.20;99.90;;;;;;5076549;28;20195;-80
2021/12/10 10:20:57;;;;;;;104.67;44.43;;;2.50;99.90;;;;;;5075617;28;20193;-80
2021/12/10 10:23:27;;;;;;;120.23;48.43;;;2.70;99.90;;;;;;5076159;28;20268;-80
2021/12/10 10:25:57;;;;;;;126.60;47.53;;;2.90;99.90;;;;;;5076275;28;20188;-79
2021/12/10 10:28:24;;;;;;;132.13;51.00;;;3.00;99.90;;;;;;5076087;28;20287;-79
2021/12/10 10:31:00;;;;;;;114.57;45.93;;;3.10;99.90;;;;;;5075910;28;20261;-79
2021/12/10 10:33:28;;;;;;;104.73;44.00;;;3.20;99.90;;;;;;5075044;28;20186;-79
2021/12/10 10:36:02;;;;;;;111.63;44.43;;;3.10;99.90;;;;;;5075511;28;20252;-79
2021/12/10 10:38:31;;;;;;;111.27;43.87;;;3.10;99.90;;;;;;5075365;28;20199;-78
2021/12/10 10:41:01;;;;;;;108.10;46.20;;;3.00;99.90;;;;;;5076031;28;20689;-78
2021/12/10 10:43:30;;;;;;;103.70;42.77;;;3.00;99.90;;;;;;5075929;28;20176;-79
2021/12/10 10:45:59;;;;;;;106.10;44.60;;;3.00;99.90;;;;;;5075331;28;20198;-78
2021/12/10 10:48:27;;;;;;;110.53;42.23;;;2.90;99.90;;;;;;5075540;28;20226;-78
2021/12/10 10:50:58;;;;;;;106.07;43.60;;;2.80;99.90;;;;;;5075283;28;20184;-79
2021/12/10 10:53:30;;;;;;;106.23;41.93;;;2.70;99.90;;;;;;5055562;28;20185;-79
2021/12/10 10:56:05;;;;;;;112.13;44.40;;;2.70;99.90;;;;;;5055895;28;20262;-79
2021/12/10 10:58:36;;;;;;;114.67;44.37;;;2.70;99.90;;;;;;5073030;28;20264;-79
2021/12/10 11:01:13;;;;;;;114.73;45.83;;;2.70;99.90;;;;;;5075041;28;20192;-79
2021/12/10 11:03:51;;;;;;;114.83;45.77;;;2.70;99.90;;;;;;5075407;28;20542;-78
2021/12/10 11:06:25;;;;;;;113.53;44.63;;;2.70;99.90;;;;;;5074581;28;20652;-78
2021/12/10 11:08:56;;;;;;;119.63;48.90;;;2.60;99.90;;;;;;5074142;28;20180;-78
2021/12/10 11:11:29;;;;;;;125.90;51.13;;;2.60;99.90;;;;;;5074602;28;20184;-78
2021/12/10 11:14:05;;;;;;;109.23;43.60;;;2.60;99.90;;;;;;5074847;28;20184;-78
2021/12/10 11:16:54;;;;;;;115.37;43.77;;;2.60;99.90;;;;;;5074775;28;20183;-79
2021/12/10 11:19:24;;;;;;;116.97;45.20;;;2.60;99.90;;;;;;5074585;28;20184;-79
2021/12/10 11:21:56;;;;;;;117.97;45.63;;;2.50;99.90;;;;;;5074676;28;20192;-79
2021/12/10 11:24:27;;;;;;;116.00;44.63;;;2.60;99.90;;;;;;5075117;28;20247;-79
2021/12/10 11:27:02;;;;;;;115.23;44.37;;;2.50;99.90;;;;;;5074412;28;20683;-79
2021/12/10 11:29:43;;;;;;;125.33;46.80;;;2.50;99.90;;;;;;5074946;28;20184;-79
2021/12/10 11:32:15;;;;;;;128.20;47.07;;;2.50;99.90;;;;;;5074574;28;20190;-79
2021/12/10 11:34:47;;;;;;;127.90;49.93;;;2.50;99.90;;;;;;5074477;28;20633;-79
2021/12/10 11:37:17;;;;;;;134.60;57.50;;;2.50;99.90;;;;;;5074771;28;20205;-79
2021/12/10 11:39:49;;;;;;;136.90;54.17;;;2.50;99.90;;;;;;5074275;28;20311;-79
2021/12/10 11:42:42;;;;;;;111.13;44.73;;;2.50;99.90;;;;;;5074218;28;20246;-79
2021/12/10 11:45:31;;;;;;;110.63;44.70;;;2.40;99.90;;;;;;5074610;28;20192;-79
2021/12/10 11:48:09;;;;;;;117.97;47.40;;;2.40;99.90;;;;;;5074177;28;20200;-79
2021/12/10 11:50:38;;;;;;;120.23;48.37;;;2.30;99.90;;;;;;5074182;28;20180;-79
2021/12/10 11:53:08;;;;;;;123.97;48.53;;;2.30;99.90;;;;;;5074402;28;20188;-79
2021/12/10 11:55:38;;;;;;;131.30;51.53;;;2.20;99.90;;;;;;5074476;28;20538;-79
2021/12/10 11:58:16;;;;;;;128.30;49.40;;;2.20;99.90;;;;;;5073283;28;20192;-79
2021/12/10 12:00:45;;;;;;;121.83;48.33;;;2.10;99.90;;;;;;5074274;28;20208;-79
2021/12/10 12:03:14;;;;;;;119.87;48.10;;;2.10;99.90;;;;;;5074178;28;20270;-79
2021/12/10 12:05:45;;;;;;;239.67;96.63;;;2.10;99.90;;;;;;5073510;28;20199;-79
2021/12/10 12:08:18;;;;;;;135.33;54.07;;;2.10;99.90;;;;;;5073724;28;20218;-79
2021/12/10 12:10:51;;;;;;;190.50;77.03;;;2.10;99.90;;;;;;5073752;28;20275;-79
2021/12/10 12:13:26;;;;;;;120.30;48.70;;;2.00;99.90;;;;;;5074166;28;20676;-79
2021/12/10 12:15:56;;;;;;;133.53;52.87;;;1.90;99.90;;;;;;5073382;28;20190;-79
2021/12/10 12:18:26;;;;;;;118.50;44.57;;;1.80;99.90;;;;;;5073908;28;20200;-79
2021/12/10 12:20:55;;;;;;;124.73;45.83;;;1.80;99.90;;;;;;5073006;28;20605;-79
2021/12/10 12:26:12;;;;;;;114.83;44.27;;;1.80;99.90;;;;;;5073520;28;20183;-79
2021/12/10 12:28:43;;;;;;;114.83;41.93;;;1.80;99.90;;;;;;5073789;28;20221;-79
2021/12/10 12:31:12;;;;;;;125.10;50.67;;;1.80;99.90;;;;;;5073379;28;20184;-78
2021/12/10 12:34:08;;;;;;;127.73;47.47;;;1.80;99.90;;;;;;5073415;28;20261;-79
2021/12/10 12:36:40;;;;;;;116.93;46.40;;;1.80;99.90;;;;;;5049532;28;20249;-79
2021/12/10 12:39:11;;;;;;;112.27;43.07;;;1.80;99.90;;;;;;5073202;28;20625;-78
2021/12/10 12:41:41;;;;;;;121.23;50.47;;;1.80;99.90;;;;;;5073245;28;20192;-79
2021/12/10 12:44:21;;;;;;;109.47;43.83;;;1.70;99.90;;;;;;5073438;28;20555;-79
2021/12/10 12:47:12;;;;;;;122.83;49.00;;;1.70;99.90;;;;;;5073279;28;20214;-79
2021/12/10 12:50:10;;;;;;;123.13;47.20;;;1.60;99.90;;;;;;5073322;28;20652;-78